Time;durP1;ratioP1;P1;durP2;ratioP2;P2;SDS_P1;SDS_P2;PMS_P1;PMS_P2;Temp;Humidity;BMP_temperature;BMP_pressure;BME280_temperature;BME280_humidity;BME280_pressure;Samples;Min_cycle;Max_cycle;Signal;HPM_P1;HPM_P2
2022/11/02 00:01:42;;;;;;;3.55;1.13;;;;;;;19.08;59.61;101234.53;5050858;28;20032;-46
2022/11/02 00:04:08;;;;;;;2.58;1.10;;;;;;;19.10;59.56;101237.13;5044846;28;20051;-45
2022/11/02 00:06:33;;;;;;;3.53;1.30;;;;;;;19.09;59.59;101227.50;5043487;28;20045;-45
2022/11/02 00:08:58;;;;;;;2.97;1.30;;;;;;;19.09;59.67;101232.75;5051391;28;20080;-44
2022/11/02 00:11:24;;;;;;;6.43;1.63;;;;;;;19.09;59.45;101228.34;5044916;28;20041;-42
2022/11/02 00:13:49;;;;;;;3.78;1.33;;;;;;;19.09;59.61;101230.13;5047959;28;20040;-45
2022/11/02 00:16:17;;;;;;;2.67;1.20;;;;;;;19.08;59.57;101239.81;5050318;28;20029;-44
2022/11/02 00:18:45;;;;;;;4.38;1.42;;;;;;;19.09;59.53;101243.28;5043243;28;20428;-44
2022/11/02 00:21:11;;;;;;;3.85;1.38;;;;;;;19.09;59.66;101235.41;5055924;28;20044;-46
2022/11/02 00:23:40;;;;;;;7.68;1.40;;;;;;;19.09;59.26;101220.44;5052838;28;20055;-44
2022/11/02 00:26:06;;;;;;;4.25;1.42;;;;;;;19.08;59.71;101224.00;5051898;28;20170;-45
2022/11/02 00:28:31;;;;;;;2.50;1.00;;;;;;;19.10;59.45;101230.06;5050860;28;20045;-45
2022/11/02 00:30:57;;;;;;;4.25;1.25;;;;;;;19.11;59.56;101228.25;5046578;28;20064;-45
2022/11/02 00:33:22;;;;;;;2.63;1.15;;;;;;;19.10;59.47;101223.94;5048474;28;20588;-44
2022/11/02 00:35:48;;;;;;;6.80;1.40;;;;;;;19.09;59.47;101232.75;5056507;28;20033;-45
2022/11/02 00:38:13;;;;;;;1.83;0.90;;;;;;;19.09;59.52;101227.50;5049139;28;20436;-44
2022/11/02 00:40:38;;;;;;;3.25;1.20;;;;;;;19.07;59.46;101235.50;5042067;28;20075;-45
2022/11/02 00:43:05;;;;;;;6.15;1.77;;;;;;;19.09;59.53;101230.13;5045396;28;20045;-45
2022/11/02 00:45:30;;;;;;;3.50;1.00;;;;;;;19.10;59.54;101237.13;5048439;28;20044;-47
2022/11/02 00:47:55;;;;;;;3.35;1.10;;;;;;;19.09;59.67;101240.66;5047372;28;20049;-45
2022/11/02 00:50:21;;;;;;;2.88;1.08;;;;;;;19.09;59.56;101236.25;5043574;28;20570;-45
2022/11/02 00:52:46;;;;;;;2.58;1.10;;;;;;;19.10;59.45;101232.69;5050095;28;21051;-44
2022/11/02 00:55:11;;;;;;;3.28;1.45;;;;;;;19.08;59.73;101236.31;5049226;28;20044;-44
2022/11/02 00:57:40;;;;;;;2.25;0.90;;;;;;;19.07;59.41;101232.00;5051520;28;20949;-44
2022/11/02 01:00:07;;;;;;;2.15;0.93;;;;;;;19.09;59.58;101240.66;5049612;28;20127;-47
2022/11/02 01:02:33;;;;;;;4.05;1.30;;;;;;;19.09;59.45;101233.63;5049054;28;20043;-45
2022/11/02 01:04:58;;;;;;;3.47;1.15;;;;;;;19.06;59.46;101233.78;5047450;28;20044;-45
2022/11/02 01:07:24;;;;;;;2.47;1.27;;;;;;;19.09;59.37;101240.66;5048361;28;20063;-45
2022/11/02 01:09:49;;;;;;;4.93;1.40;;;;;;;19.09;59.39;101245.94;5042060;28;20037;-44
2022/11/02 01:12:15;;;;;;;4.05;1.27;;;;;;;19.07;59.32;101237.25;5049830;28;20037;-44
2022/11/02 01:14:41;;;;;;;2.00;1.05;;;;;;;19.08;59.33;101238.94;5045296;28;20090;-45
2022/11/02 01:17:06;;;;;;;3.30;1.08;;;;;;;19.07;59.28;101235.50;5051784;28;20020;-44
2022/11/02 01:19:31;;;;;;;2.63;1.05;;;;;;;19.06;59.41;101240.81;5044044;28;20083;-44
2022/11/02 01:21:57;;;;;;;4.50;1.33;;;;;;;19.08;59.27;101249.47;5052162;28;20051;-46
2022/11/02 01:24:22;;;;;;;5.40;1.63;;;;;;;19.06;59.31;101246.06;5052314;28;20032;-45
2022/11/02 01:26:51;;;;;;;6.65;1.38;;;;;;;19.07;59.32;101246.00;5049430;28;20037;-45
2022/11/02 01:29:17;;;;;;;3.45;1.00;;;;;;;19.08;59.39;101244.22;5050437;28;20043;-44
2022/11/02 01:31:42;;;;;;;3.75;1.33;;;;;;;19.07;59.39;101242.53;5045431;28;20033;-44
2022/11/02 01:34:09;;;;;;;3.17;1.00;;;;;;;19.05;59.48;101239.94;5050088;28;20051;-44
2022/11/02 01:36:35;;;;;;;1.63;1.08;;;;;;;19.06;59.21;101239.03;5047958;28;20037;-45
2022/11/02 01:39:00;;;;;;;4.72;1.23;;;;;;;19.06;59.21;101241.66;5055099;28;20044;-46
2022/11/02 01:41:25;;;;;;;3.05;1.08;;;;;;;19.08;59.27;101249.47;5046918;28;20040;-45
2022/11/02 01:43:54;;;;;;;3.13;1.00;;;;;;;19.06;59.31;101249.56;5054227;28;20480;-46
2022/11/02 01:46:23;;;;;;;3.53;1.52;;;;;;;19.05;59.06;101250.47;5056126;28;20063;-45
2022/11/02 01:49:00;;;;;;;4.80;1.58;;;;;;;19.06;59.25;101256.59;5058117;28;20052;-46
2022/11/02 01:51:30;;;;;;;4.28;1.30;;;;;;;19.06;59.29;101246.94;5050155;28;20063;-44
2022/11/02 01:53:59;;;;;;;2.28;1.10;;;;;;;19.05;59.20;101244.34;5053949;28;20044;-45
2022/11/02 01:56:30;;;;;;;4.30;1.48;;;;;;;19.06;59.08;101249.56;5060524;28;20077;-43
2022/11/02 01:59:00;;;;;;;3.75;1.13;;;;;;;19.05;59.18;101249.63;5052984;28;20082;-44
2022/11/02 02:01:26;;;;;;;3.80;1.50;;;;;;;19.05;59.03;101252.25;5056250;28;20033;-45
2022/11/02 02:03:53;;;;;;;3.42;1.33;;;;;;;19.03;59.15;101257.63;5053282;28;20945;-44
2022/11/02 02:06:18;;;;;;;3.38;0.98;;;;;;;19.04;59.26;101258.47;5050122;28;20048;-44
2022/11/02 02:08:47;;;;;;;3.33;1.30;;;;;;;19.06;58.83;101262.72;5050547;28;20041;-45
2022/11/02 02:11:26;;;;;;;2.72;1.05;;;;;;;19.05;59.01;101258.38;5052329;28;20429;-44
2022/11/02 02:13:59;;;;;;;3.88;1.20;;;;;;;19.06;59.19;101249.56;5057154;28;20047;-44
2022/11/02 02:16:44;;;;;;;2.40;0.95;;;;;;;19.06;58.98;101246.06;5058183;28;20097;-44
2022/11/02 02:19:48;;;;;;;4.25;1.20;;;;;;;19.02;59.01;101247.13;5051053;28;20107;-45
2022/11/02 02:22:41;;;;;;;5.30;1.20;;;;;;;19.01;59.12;101251.59;5054473;28;20040;-44
2022/11/02 02:25:25;;;;;;;3.38;1.20;;;;;;;19.04;58.94;101250.56;5054021;28;20144;-45
2022/11/02 02:28:12;;;;;;;4.65;1.67;;;;;;;19.03;58.92;101243.59;5054101;28;20056;-44
2022/11/02 02:30:45;;;;;;;4.07;1.40;;;;;;;19.02;58.90;101239.25;5053547;28;20493;-47
2022/11/02 02:33:17;;;;;;;3.35;1.00;;;;;;;19.01;58.73;101241.03;5054690;28;20475;-44
2022/11/02 02:35:50;;;;;;;2.13;0.90;;;;;;;19.03;58.75;101241.81;5060208;28;20032;-44
2022/11/02 02:38:28;;;;;;;4.30;1.42;;;;;;;19.03;58.88;101243.59;5050598;28;20040;-44
2022/11/02 02:41:18;;;;;;;2.70;1.00;;;;;;;19.03;58.80;101252.34;5051631;28;20201;-47
2022/11/02 02:43:57;;;;;;;4.40;0.93;;;;;;;19.01;58.86;101254.22;5045005;28;20045;-44
2022/11/02 02:46:39;;;;;;;3.97;1.30;;;;;;;19.03;58.89;101252.34;5054782;28;20036;-47
2022/11/02 02:49:09;;;;;;;2.28;0.93;;;;;;;19.02;58.80;101245.38;5069315;28;20065;-44
2022/11/02 02:51:36;;;;;;;5.50;1.40;;;;;;;19.00;58.96;101252.50;5047990;28;20033;-45
2022/11/02 02:54:06;;;;;;;2.95;1.02;;;;;;;19.00;58.78;101241.09;5052478;28;20095;-44
2022/11/02 02:56:47;;;;;;;3.45;1.10;;;;;;;19.01;58.88;101238.41;5054965;28;20506;-44
2022/11/02 02:59:32;;;;;;;4.00;1.23;;;;;;;19.00;59.00;101241.97;5051483;28;20040;-45
2022/11/02 03:01:57;;;;;;;3.83;1.23;;;;;;;19.01;59.04;101240.19;5052597;28;20040;-44
2022/11/02 03:04:24;;;;;;;6.80;1.35;;;;;;;19.01;58.75;101243.69;5055166;28;20028;-44
2022/11/02 03:06:55;;;;;;;4.68;1.27;;;;;;;19.01;59.02;101242.81;5050823;28;20560;-46
2022/11/02 03:09:38;;;;;;;2.83;1.00;;;;;;;19.00;58.80;101241.97;5050170;28;20037;-44
2022/11/02 03:12:37;;;;;;;2.25;1.20;;;;;;;18.99;58.70;101240.25;5058636;28;20041;-45
2022/11/02 03:15:42;;;;;;;2.83;0.90;;;;;;;18.99;58.76;101244.66;5063960;28;20044;-44
2022/11/02 03:18:29;;;;;;;5.28;1.50;;;;;;;19.00;58.62;101235.84;5056420;28;20037;-44
2022/11/02 03:21:00;;;;;;;4.25;1.17;;;;;;;18.99;58.68;101240.25;5059966;28;20040;-44
2022/11/02 03:23:36;;;;;;;2.85;1.05;;;;;;;18.98;58.81;101249.09;5052570;28;20028;-44
2022/11/02 03:26:02;;;;;;;3.70;1.35;;;;;;;19.00;58.72;101247.22;5050938;28;20033;-44
2022/11/02 03:28:59;;;;;;;3.15;0.93;;;;;;;18.98;58.71;101256.13;5050518;28;20132;-45
2022/11/02 03:31:34;;;;;;;1.88;1.10;;;;;;;18.99;58.55;101263.09;5051206;28;20040;-45
2022/11/02 03:34:24;;;;;;;3.08;1.33;;;;;;;18.99;58.63;101269.22;5057194;28;20041;-44
2022/11/02 03:37:12;;;;;;;3.40;1.35;;;;;;;18.99;58.78;101270.97;5053936;28;20048;-44
2022/11/02 03:39:44;;;;;;;3.55;1.08;;;;;;;18.99;58.87;101263.09;5048050;28;20033;-44
2022/11/02 03:42:14;;;;;;;1.70;0.82;;;;;;;19.00;58.42;101276.19;5050847;28;20159;-45
2022/11/02 03:44:40;;;;;;;2.75;1.17;;;;;;;19.01;58.79;101269.16;5052102;28;20055;-44
2022/11/02 03:47:10;;;;;;;2.42;1.38;;;;;;;18.99;58.64;101274.47;5059372;28;20028;-45
2022/11/02 03:49:39;;;;;;;5.88;1.40;;;;;;;19.00;58.76;101277.97;5048944;28;20079;-45
2022/11/02 03:52:09;;;;;;;3.03;1.15;;;;;;;19.00;58.40;101285.88;5052032;28;20032;-47
2022/11/02 03:54:41;;;;;;;3.03;1.10;;;;;;;18.98;58.76;101285.09;5055665;28;20501;-44
2022/11/02 03:57:10;;;;;;;4.22;1.10;;;;;;;18.96;58.79;101281.66;5056933;28;20037;-44
2022/11/02 03:59:36;;;;;;;4.72;1.55;;;;;;;18.98;58.81;101285.09;5048732;28;20525;-44
2022/11/02 04:02:01;;;;;;;1.95;0.85;;;;;;;18.99;59.31;101289.41;5052355;28;20035;-45
2022/11/02 04:04:27;;;;;;;3.17;1.25;;;;;;;18.99;58.69;101292.91;5045319;28;20036;-45
2022/11/02 04:06:52;;;;;;;2.50;0.98;;;;;;;18.98;58.76;101300.91;5049175;28;20140;-45
2022/11/02 04:09:18;;;;;;;2.15;1.02;;;;;;;18.98;58.78;101295.63;5045906;28;20049;-46
2022/11/02 04:14:37;;;;;;;4.53;1.55;;;;;;;19.00;58.62;101307.78;5047056;28;20460;-49
2022/11/02 04:19:48;;;;;;;2.70;1.02;;;;;;;18.98;58.72;101319.31;5050840;28;20040;-48
2022/11/02 04:25:14;;;;;;;3.75;1.15;;;;;;;18.97;58.82;101326.38;5054875;28;20095;-44
2022/11/02 04:27:41;;;;;;;2.03;0.90;;;;;;;18.98;58.63;101321.97;5051224;28;20033;-45
2022/11/02 04:30:07;;;;;;;2.90;1.20;;;;;;;18.97;58.72;101329.00;5048702;28;20068;-46
2022/11/02 04:35:29;;;;;;;2.08;0.95;;;;;;;18.96;58.63;101334.31;5042223;28;20124;-46
2022/11/02 04:40:38;;;;;;;2.87;1.23;;;;;;;18.96;58.73;101340.44;5048731;28;20143;-46
2022/11/02 04:43:03;;;;;;;2.47;1.08;;;;;;;18.98;58.60;101340.38;5048976;28;20572;-46
2022/11/02 04:45:29;;;;;;;2.90;1.13;;;;;;;18.98;58.57;101349.16;5044862;28;20683;-46
2022/11/02 04:48:08;;;;;;;3.40;1.17;;;;;;;18.97;58.68;101351.84;5050728;28;20045;-45
2022/11/02 04:50:34;;;;;;;4.05;1.38;;;;;;;18.96;58.50;101361.50;5054366;28;20489;-46
2022/11/02 04:53:02;;;;;;;2.67;1.20;;;;;;;18.95;58.72;101356.31;5053774;28;20033;-45
2022/11/02 04:55:28;;;;;;;2.92;0.98;;;;;;;18.96;58.67;101360.66;5048125;28;20036;-48
2022/11/02 04:57:54;;;;;;;3.95;1.10;;;;;;;18.95;58.54;101361.59;5051846;28;20039;-45
2022/11/02 05:00:20;;;;;;;4.85;0.82;;;;;;;18.95;58.45;101364.22;5043114;28;20047;-45
2022/11/02 05:02:49;;;;;;;2.88;0.90;;;;;;;18.96;58.58;101365.91;5048589;28;20575;-46
2022/11/02 05:05:16;;;;;;;2.58;1.02;;;;;;;18.95;58.65;101364.22;5047884;28;20687;-45
2022/11/02 05:07:42;;;;;;;3.17;1.73;;;;;;;18.94;58.50;101379.16;5046737;28;20041;-45
2022/11/02 05:10:08;;;;;;;3.58;1.00;;;;;;;18.95;58.60;101374.75;5046406;28;20107;-45
2022/11/02 05:12:33;;;;;;;4.15;1.20;;;;;;;18.97;58.45;101370.25;5047442;28;20048;-46
2022/11/02 05:14:59;;;;;;;3.50;1.13;;;;;;;18.95;58.48;101372.13;5043328;28;20063;-45
2022/11/02 05:17:24;;;;;;;2.58;1.08;;;;;;;18.96;58.42;101379.06;5049059;28;20194;-46
2022/11/02 05:19:50;;;;;;;4.45;0.93;;;;;;;18.94;58.66;101380.94;5049295;28;20068;-46
2022/11/02 05:22:15;;;;;;;3.20;1.02;;;;;;;18.93;58.61;101387.13;5047687;28;20145;-45
2022/11/02 05:24:40;;;;;;;3.30;1.23;;;;;;;18.93;58.76;101392.38;5048497;28;20063;-45
2022/11/02 05:27:06;;;;;;;5.82;1.20;;;;;;;18.94;58.52;101396.72;5048835;28;20076;-48
2022/11/02 05:29:31;;;;;;;2.22;0.90;;;;;;;18.95;58.45;101395.81;5042216;28;20024;-46
2022/11/02 05:31:56;;;;;;;3.75;0.82;;;;;;;18.95;58.39;101388.78;5050441;28;20032;-49
2022/11/02 05:34:22;;;;;;;4.10;1.10;;;;;;;18.97;58.43;101399.22;5050958;28;20094;-41
2022/11/02 05:36:48;;;;;;;4.57;1.23;;;;;;;18.94;58.23;101394.97;5047871;28;20047;-42
2022/11/02 05:39:13;;;;;;;4.05;1.10;;;;;;;18.93;58.55;101395.88;5047648;28;20351;-41
2022/11/02 05:41:39;;;;;;;3.83;1.35;;;;;;;18.93;58.36;101402.91;5048284;28;20090;-40
2022/11/02 05:44:04;;;;;;;3.47;1.48;;;;;;;18.94;58.30;101402.00;5047267;28;20390;-41
2022/11/02 05:46:29;;;;;;;2.20;1.00;;;;;;;18.96;58.23;101403.63;5049112;28;20771;-41
2022/11/02 05:48:55;;;;;;;3.78;1.33;;;;;;;18.97;58.21;101408.00;5048288;28;20135;-41
2022/11/02 05:51:20;;;;;;;2.17;1.00;;;;;;;18.99;57.97;101415.81;5049850;28;20033;-40
2022/11/02 05:53:46;;;;;;;2.15;1.02;;;;;;;19.03;58.08;101412.97;5048581;28;20053;-41
2022/11/02 05:56:13;;;;;;;2.28;1.00;;;;;;;19.03;58.05;101418.25;5053408;28;20025;-41
2022/11/02 05:58:39;;;;;;;2.25;0.73;;;;;;;19.06;58.09;101426.00;5055009;28;20037;-42
2022/11/02 06:01:06;;;;;;;3.78;1.10;;;;;;;19.07;57.93;101426.84;5045070;28;20037;-41
2022/11/02 06:03:31;;;;;;;2.67;1.00;;;;;;;19.09;58.21;101431.13;5048423;28;20508;-42
2022/11/02 06:05:58;;;;;;;1.73;1.08;;;;;;;19.06;57.99;101433.91;5048567;28;20160;-41
2022/11/02 06:08:24;;;;;;;2.92;0.95;;;;;;;19.08;57.84;101437.31;5049983;28;20025;-43
2022/11/02 06:10:50;;;;;;;2.85;1.15;;;;;;;19.08;57.90;101442.56;5048111;28;20668;-41
2022/11/02 06:13:15;;;;;;;3.53;1.17;;;;;;;19.08;57.88;101444.34;5053706;28;20044;-43
2022/11/02 06:15:41;;;;;;;4.35;0.88;;;;;;;19.10;58.05;101450.41;5049496;28;20097;-41
2022/11/02 06:18:06;;;;;;;2.50;1.00;;;;;;;19.11;57.94;101454.75;5046691;28;20087;-41
2022/11/02 06:20:32;;;;;;;2.47;0.93;;;;;;;19.18;58.04;101454.41;5042278;28;20032;-46
2022/11/02 06:22:58;;;;;;;3.17;0.85;;;;;;;19.32;58.04;101461.69;5049146;28;20147;-44
2022/11/02 06:25:23;;;;;;;2.40;0.95;;;;;;;19.34;57.82;101459.00;5049148;28;20036;-44
2022/11/02 06:27:55;;;;;;;2.90;1.02;;;;;;;19.41;57.79;101470.94;5047096;28;20803;-43
2022/11/02 06:30:21;;;;;;;2.83;1.05;;;;;;;19.51;57.32;101467.84;5047658;28;20081;-43
2022/11/02 06:32:51;;;;;;;6.75;1.05;;;;;;;19.50;57.62;101475.78;5051010;28;20152;-43
2022/11/02 06:35:18;;;;;;;4.13;1.67;;;;;;;19.54;58.20;101475.59;5044806;28;20055;-42
2022/11/02 06:37:44;;;;;;;4.40;1.30;;;;;;;19.59;58.29;101478.00;5050673;28;22145;-42
2022/11/02 06:40:11;;;;;;;5.00;1.63;;;;;;;19.64;58.13;101491.84;5048121;28;20840;-43
2022/11/02 06:42:37;;;;;;;6.70;1.23;;;;;;;19.68;58.28;101488.97;5050875;28;20830;-43
2022/11/02 06:45:03;;;;;;;9.65;2.15;;;;;;;19.69;58.67;101488.06;5049433;28;20037;-43
2022/11/02 06:47:33;;;;;;;11.68;2.00;;;;;;;19.69;58.68;101492.47;5047295;28;20032;-42
2022/11/02 06:49:59;;;;;;;3.72;1.17;;;;;;;19.72;57.93;101501.09;5048432;28;20060;-44
2022/11/02 06:52:25;;;;;;;5.68;1.48;;;;;;;19.76;57.82;101497.38;5047771;28;20462;-42
2022/11/02 06:54:51;;;;;;;4.43;1.48;;;;;;;19.75;58.00;101508.00;5050228;28;20050;-44
2022/11/02 06:57:16;;;;;;;4.30;1.33;;;;;;;19.73;58.03;101508.06;5051999;28;20036;-42
2022/11/02 06:59:41;;;;;;;6.00;1.52;;;;;;;19.78;57.73;101515.75;5047414;28;20028;-43
2022/11/02 07:02:08;;;;;;;4.15;1.35;;;;;;;19.74;58.17;101527.38;5052707;28;20147;-45
2022/11/02 07:04:33;;;;;;;5.82;1.55;;;;;;;19.75;57.67;101526.44;5044689;28;20036;-44
2022/11/02 07:06:59;;;;;;;4.07;1.35;;;;;;;19.71;57.75;101528.38;5046546;28;20044;-46
2022/11/02 07:09:24;;;;;;;5.15;1.40;;;;;;;19.65;57.98;101536.56;5045031;28;20041;-47
2022/11/02 07:11:49;;;;;;;6.10;1.38;;;;;;;19.74;57.77;101536.13;5052961;28;20045;-49
2022/11/02 07:14:15;;;;;;;6.13;1.58;;;;;;;19.81;58.07;101544.63;5053130;28;20041;-49
2022/11/02 07:16:40;;;;;;;4.95;1.13;;;;;;;19.89;58.02;101545.09;5050407;28;20029;-50
2022/11/02 07:19:05;;;;;;;6.35;1.40;;;;;;;20.08;57.99;101540.72;5050034;28;20075;-50
2022/11/02 07:21:31;;;;;;;1.58;0.80;;;;;;;20.06;58.06;101537.25;5042799;28;20044;-49
2022/11/02 07:23:56;;;;;;;8.80;1.50;;;;;;;20.05;58.08;101550.50;5050887;28;20067;-50
2022/11/02 07:26:23;;;;;;;5.03;1.30;;;;;;;20.04;58.59;101557.56;5053836;28;20513;-50
2022/11/02 07:28:48;;;;;;;4.53;1.30;;;;;;;20.02;57.89;101550.66;5049045;28;20164;-51
2022/11/02 07:31:14;;;;;;;4.50;1.33;;;;;;;20.07;58.34;101557.41;5052046;28;20127;-54
2022/11/02 07:33:39;;;;;;;9.43;1.80;;;;;;;20.24;58.56;101560.13;5051554;28;20516;-49
2022/11/02 07:36:05;;;;;;;6.93;1.55;;;;;;;20.28;58.43;101566.13;5047106;28;20120;-47
2022/11/02 07:38:30;;;;;;;5.90;1.75;;;;;;;20.28;57.88;101569.63;5057580;28;20048;-50
2022/11/02 07:40:55;;;;;;;7.68;1.40;;;;;;;20.17;57.77;101578.97;5050255;28;20036;-49
2022/11/02 07:43:22;;;;;;;2.80;1.05;;;;;;;20.18;58.61;101588.56;5054584;28;20036;-49
2022/11/02 07:45:47;;;;;;;3.67;1.50;;;;;;;20.16;57.25;101586.03;5050964;28;20124;-53
2022/11/02 07:48:12;;;;;;;4.40;1.45;;;;;;;20.10;57.74;101591.59;5052206;28;20036;-48
2022/11/02 07:50:38;;;;;;;8.48;1.50;;;;;;;20.26;58.41;101589.91;5045803;28;20035;-51
2022/11/02 07:53:04;;;;;;;4.20;1.30;;;;;;;20.44;58.37;101595.25;5049371;28;20405;-51
2022/11/02 07:55:30;;;;;;;4.22;1.20;;;;;;;20.51;58.13;101607.19;5045781;28;20171;-47
2022/11/02 07:58:09;;;;;;;2.45;0.90;;;;;;;20.54;58.54;101607.06;5048923;28;20040;-50
2022/11/02 08:00:37;;;;;;;4.57;1.23;;;;;;;20.50;58.91;101624.81;5043651;28;20144;-47
2022/11/02 08:03:04;;;;;;;2.53;0.90;;;;;;;20.55;58.92;101621.97;5051910;28;20037;-46
2022/11/02 08:05:32;;;;;;;3.42;1.25;;;;;;;20.50;58.81;101622.19;5045611;28;20032;-47
2022/11/02 08:08:10;;;;;;;5.18;1.75;;;;;;;20.51;58.64;101618.63;5048319;28;20043;-46
2022/11/02 08:10:36;;;;;;;5.30;1.77;;;;;;;20.35;56.67;101617.69;5042733;28;20037;-46
2022/11/02 08:13:02;;;;;;;4.75;1.30;;;;;;;19.93;58.32;101625.78;5048060;28;20041;-48
2022/11/02 08:15:27;;;;;;;4.05;1.40;;;;;;;19.75;58.23;101629.28;5044993;28;20127;-47
2022/11/02 08:18:02;;;;;;;5.28;1.25;;;;;;;19.73;58.81;101631.09;5052115;28;20053;-51
2022/11/02 08:20:28;;;;;;;6.78;1.92;;;;;;;19.71;58.60;101639.09;5050217;28;20036;-53
2022/11/02 08:22:54;;;;;;;3.70;1.10;;;;;;;19.69;58.97;101638.31;5048599;28;20032;-52
2022/11/02 08:25:19;;;;;;;4.53;1.65;;;;;;;19.69;59.02;101646.22;5049147;28;20032;-51
2022/11/02 08:27:44;;;;;;;6.22;1.35;;;;;;;19.72;59.22;101643.44;5048173;28;20040;-47
2022/11/02 08:30:10;;;;;;;4.93;1.38;;;;;;;20.00;59.15;101645.66;5048749;28;20942;-45
2022/11/02 08:32:36;;;;;;;3.85;1.13;;;;;;;20.03;59.15;101652.56;5052452;28;20041;-45
2022/11/02 08:35:01;;;;;;;4.57;1.08;;;;;;;20.04;59.37;101649.88;5051640;28;20040;-44
2022/11/02 08:37:26;;;;;;;3.53;1.17;;;;;;;19.96;58.34;101654.66;5051938;28;20089;-49
2022/11/02 08:39:52;;;;;;;2.97;1.10;;;;;;;19.96;58.74;101656.44;5043637;28;20041;-46
2022/11/02 08:42:17;;;;;;;6.05;1.52;;;;;;;19.90;57.99;101649.66;5041360;28;20119;-45
2022/11/02 08:44:42;;;;;;;4.60;1.38;;;;;;;20.03;59.11;101658.72;5049684;28;20572;-48
2022/11/02 08:47:08;;;;;;;5.97;1.42;;;;;;;20.17;58.72;101661.59;5053939;28;20815;-48
2022/11/02 08:49:33;;;;;;;7.97;1.35;;;;;;;20.21;59.40;101663.16;5047825;28;20548;-47
2022/11/02 08:51:59;;;;;;;10.63;1.60;;;;;;;20.23;58.87;101663.94;5048550;28;20047;-49
2022/11/02 08:54:24;;;;;;;11.63;1.80;;;;;;;20.17;58.67;101666.03;5045173;28;20822;-47
2022/11/02 08:56:49;;;;;;;8.55;1.90;;;;;;;20.15;58.53;101663.44;5045584;28;20052;-46
2022/11/02 08:59:15;;;;;;;3.30;1.30;;;;;;;20.15;58.62;101667.88;5047378;28;20037;-47
2022/11/02 09:01:40;;;;;;;7.47;1.60;;;;;;;20.21;58.23;101671.09;5052455;28;20527;-46
2022/11/02 09:04:05;;;;;;;8.40;1.60;;;;;;;20.21;58.23;101675.50;5041420;28;20553;-50
2022/11/02 09:06:31;;;;;;;6.80;1.88;;;;;;;20.22;58.18;101679.84;5049175;28;20035;-49
2022/11/02 09:08:56;;;;;;;6.50;1.50;;;;;;;20.18;58.25;101676.50;5044756;28;20044;-50
2022/11/02 09:11:22;;;;;;;6.68;1.95;;;;;;;20.15;58.40;101681.91;5043906;28;20090;-47
2022/11/02 09:13:47;;;;;;;4.63;1.73;;;;;;;20.15;58.14;101679.28;5047711;28;20044;-51
2022/11/02 09:16:12;;;;;;;7.85;1.65;;;;;;;20.14;58.19;101687.28;5045061;28;20041;-48
2022/11/02 09:18:38;;;;;;;9.27;2.05;;;;;;;20.14;58.35;101682.00;5046522;28;20099;-47
2022/11/02 09:21:04;;;;;;;8.20;1.70;;;;;;;20.14;58.40;101690.78;5043381;28;20035;-46
2022/11/02 09:23:30;;;;;;;7.88;1.65;;;;;;;20.11;58.35;101687.41;5052845;28;20029;-47
2022/11/02 09:25:57;;;;;;;7.35;1.60;;;;;;;20.07;58.45;101688.44;5048359;28;20049;-50
2022/11/02 09:28:22;;;;;;;5.43;1.77;;;;;;;20.09;58.44;101689.25;5049770;28;20068;-50
2022/11/02 09:30:48;;;;;;;4.70;1.77;;;;;;;20.08;58.48;101688.41;5045559;28;20037;-46
2022/11/02 09:33:14;;;;;;;6.18;1.42;;;;;;;20.06;58.61;101684.09;5041508;28;20033;-49
2022/11/02 09:35:43;;;;;;;5.65;1.40;;;;;;;20.05;58.42;101693.81;5044401;28;20800;-47
2022/11/02 09:38:09;;;;;;;6.57;1.80;;;;;;;20.03;58.36;101692.13;5048855;28;20044;-47
2022/11/02 09:40:41;;;;;;;6.43;1.73;;;;;;;20.02;58.29;101693.94;5050225;28;20028;-47
2022/11/02 09:43:07;;;;;;;7.45;1.60;;;;;;;20.01;58.46;101699.28;5045823;28;20033;-47
2022/11/02 09:45:36;;;;;;;7.43;1.52;;;;;;;20.00;58.59;101698.41;5046630;28;20047;-48
2022/11/02 09:48:15;;;;;;;5.45;1.45;;;;;;;19.98;58.68;101697.63;5047257;28;20720;-51
2022/11/02 09:51:09;;;;;;;2.95;1.08;;;;;;;19.96;58.58;101688.09;5049778;28;20041;-51
2022/11/02 09:53:51;;;;;;;6.90;1.50;;;;;;;19.96;58.71;101696.84;5046139;28;20071;-48
2022/11/02 09:56:18;;;;;;;4.95;1.45;;;;;;;19.96;58.69;101693.38;5046749;28;20021;-55
2022/11/02 09:58:49;;;;;;;7.65;2.25;;;;;;;19.87;59.16;101705.19;5050405;28;20055;-48
2022/11/02 10:01:36;;;;;;;5.25;1.23;;;;;;;19.85;59.46;101703.53;5051185;28;20060;-50
2022/11/02 10:04:46;;;;;;;8.13;1.70;;;;;;;19.83;59.49;101700.97;5055493;28;20040;-51
2022/11/02 10:07:31;;;;;;;4.03;1.33;;;;;;;19.84;59.11;101704.47;5042035;28;20437;-52
2022/11/02 10:10:00;;;;;;;;;;;;;;;19.75;58.56;101708.38;5048068;28;20041;-50
2022/11/02 10:12:55;;;;;;;6.00;1.95;;;;;;;19.85;59.12;101711.44;5057245;28;20018;-48
2022/11/02 10:15:38;;;;;;;9.27;1.55;;;;;;;19.86;59.71;101714.00;5050447;28;20044;-50
2022/11/02 10:18:05;;;;;;;5.13;1.50;;;;;;;19.95;59.11;101718.88;5046736;28;20051;-52
2022/11/02 10:20:40;;;;;;;5.55;1.50;;;;;;;20.01;59.51;101712.47;5047850;28;20033;-51
2022/11/02 10:23:08;;;;;;;7.38;1.10;;;;;;;19.97;59.11;101717.00;5047524;28;20036;-52
2022/11/02 10:25:35;;;;;;;7.78;2.00;;;;;;;20.01;59.50;101723.00;5046509;28;20055;-52
2022/11/02 10:28:13;;;;;;;3.47;1.63;;;;;;;20.02;59.00;101720.31;5049919;28;20043;-47
2022/11/02 10:30:39;;;;;;;5.85;1.05;;;;;;;20.02;59.50;101720.31;5049629;28;20040;-51
2022/11/02 10:33:16;;;;;;;4.15;1.42;;;;;;;19.93;58.90;101715.47;5049652;28;20117;-49
2022/11/02 10:36:01;;;;;;;5.78;1.48;;;;;;;19.89;59.18;101718.28;5048710;28;20400;-52
2022/11/02 10:38:51;;;;;;;7.93;1.40;;;;;;;19.83;59.27;101711.50;5051475;28;20212;-49
2022/11/02 10:41:17;;;;;;;5.93;1.20;;;;;;;19.81;59.67;101718.63;5052161;28;20037;-49
2022/11/02 10:44:01;;;;;;;7.07;1.35;;;;;;;19.88;60.36;101720.06;5049633;28;20102;-50
2022/11/02 10:46:43;;;;;;;8.73;1.42;;;;;;;19.93;59.89;101719.88;5050035;28;20079;-48
2022/11/02 10:49:15;;;;;;;7.57;1.42;;;;;;;19.94;59.31;101722.44;5045242;28;20036;-50
2022/11/02 10:51:40;;;;;;;8.52;1.38;;;;;;;19.91;59.38;101713.78;5047267;28;20033;-49
2022/11/02 10:54:15;;;;;;;7.85;1.40;;;;;;;19.86;58.91;101713.16;5047020;28;20033;-48
2022/11/02 10:56:42;;;;;;;5.70;1.20;;;;;;;19.80;59.35;101717.78;5051819;28;20028;-48
2022/11/02 10:59:15;;;;;;;2.60;1.00;;;;;;;19.75;59.41;101721.53;5052363;28;20042;-51
2022/11/02 11:01:50;;;;;;;4.77;1.70;;;;;;;19.77;59.10;101719.69;5053216;28;20418;-48
2022/11/02 11:04:23;;;;;;;;;;;;;;;19.77;59.10;101719.69;5048157;28;20045;-49
2022/11/02 11:06:50;;;;;;;5.97;1.58;;;;;;;19.87;59.83;101725.41;5050770;28;19928;-45
2022/11/02 11:09:19;;;;;;;3.22;1.30;;;;;;;19.85;60.44;101722.00;5055408;28;20683;-48
2022/11/02 11:12:06;;;;;;;3.63;1.42;;;;;;;19.75;59.13;101713.63;5048305;28;20770;-48
2022/11/02 11:14:47;;;;;;;9.45;1.73;;;;;;;19.82;59.41;101716.88;5047426;28;20746;-48
2022/11/02 11:17:19;;;;;;;5.88;1.38;;;;;;;19.77;59.71;101717.06;5050498;28;20037;-48
2022/11/02 11:19:53;;;;;;;3.78;1.42;;;;;;;19.83;59.69;101716.78;5050326;28;20033;-50
2022/11/02 11:22:35;;;;;;;4.80;0.90;;;;;;;19.78;59.57;101716.13;5049059;28;20040;-50
2022/11/02 11:25:09;;;;;;;6.75;1.52;;;;;;;19.80;59.56;101716.91;5047700;28;20071;-50
2022/11/02 11:27:53;;;;;;;3.95;1.30;;;;;;;19.81;59.72;101710.72;5047020;28;20382;-49
2022/11/02 11:30:35;;;;;;;5.43;1.40;;;;;;;19.77;60.24;101719.69;5044281;28;20100;-48
2022/11/02 11:33:03;;;;;;;6.55;1.38;;;;;;;19.86;60.90;101718.41;5044813;28;20049;-50
2022/11/02 11:35:35;;;;;;;3.78;1.15;;;;;;;19.79;59.88;101721.31;5054017;28;20028;-47
2022/11/02 11:38:03;;;;;;;4.65;1.17;;;;;;;19.83;59.30;101718.56;5049571;28;20044;-46
2022/11/02 11:40:36;;;;;;;6.47;1.30;;;;;;;19.77;59.45;101715.28;5048105;28;20120;-45
2022/11/02 11:43:03;;;;;;;8.13;1.65;;;;;;;19.77;61.21;101722.31;5048451;28;20076;-45
2022/11/02 11:45:31;;;;;;;3.67;1.35;;;;;;;19.75;60.70;101725.03;5030897;28;20564;-45
2022/11/02 11:48:35;;;;;;;7.68;1.35;;;;;;;19.83;59.01;101715.91;5051522;28;20032;-46
2022/11/02 11:51:02;;;;;;;4.32;1.20;;;;;;;19.73;59.74;101705.78;5017790;28;20519;-45
2022/11/02 11:53:27;;;;;;;6.65;1.48;;;;;;;19.78;59.68;101705.59;5052947;28;20040;-44